• Join FlightAware (Why Join?)
  • Login
  • US Flag 
01:37AM EST


 

Airport Tracker/Info


-or-


 

Live Flight TrackerFlight Track Log ✈ ANA969 ✈ 24-Apr-2013 ✈ RJTT / HND - RJNK / KMQ

Flight Track Log - Related Links

Times and Time Zones

All times are in EDT time to prevent confusion due to time zone crossing. See the ANA969 flight status page for this flight to view local times or setup timezone preferences in your user account.

Time Position Orientation Groundspeed Altitude Reporting Facility
EDT Latitude Longitude Course Direction KTS MPH feet Rate Location/Type
12:51AM 36.0219 137.9535 288° West  Level Estimated
12:52AM 36.0458 137.8568 287° West  Level Estimated
12:53AM 36.0697 137.7601 287° West  Level Estimated
12:54AM 36.0935 137.6632 287° West  Level Estimated
12:55AM 36.1172 137.5663 287° West  Level Estimated
12:56AM 36.1408 137.4694 287° West  Level Estimated
12:57AM 36.1644 137.3724 287° West  Level Estimated
12:58AM 36.1879 137.2753 287° West  Level Estimated
12:59AM 36.2113 137.1782 287° West  Level Estimated
01:00AM 36.2346 137.0810 287° West  Level Estimated
01:01AM 36.2578 136.9838 287° West  Level Estimated
01:02AM 36.2810 136.8865 286° West  Level Estimated
01:03AM 36.3041 136.7892 286° West  Level Estimated
01:04AM 36.3271 136.6918 286° West  Level Estimated
01:05AM 36.3500 136.5943 286° West  Level Estimated
01:06AM 36.3728 136.4968 286° West  Level Estimated
01:07AM 36.3936 136.4078 286° West  Level Estimated
01:08AM 36.3936 136.4078 302° West  Level Estimated
01:09AM 36.3936 136.4078 302° West  Level Estimated
01:10AM 36.3936 136.4078 302° West  Level Estimated
01:11AM 36.3936 136.4078 302° West  Level Estimated
01:12AM 36.3936 136.4078 302° West  Level Estimated
01:13AM 36.3936 136.4078 302° West  Level Estimated
01:14AM 36.3936 136.4078 302° West  Level Estimated
01:15AM 36.3936 136.4078 302° West  Level Estimated
01:16AM 36.3936 136.4078 302° West  Level Estimated
01:17AM 36.3936 136.4078 302° West  Level Estimated
01:18AM 36.3936 136.4078 302° West  Level Estimated
01:19AM 36.3936 136.4078 302° West  Level Estimated
01:20AM 36.3936 136.4078 302° West  Level Estimated
01:21AM 36.3936 136.4078 302° West  Level Estimated
01:22AM 36.3936 136.4078 302° West  Level Estimated
01:23AM 36.3936 136.4078 302° West  Level Estimated